createdAt,value
2022-08-18T00:00:54.518Z,24.09
2022-08-18T00:04:57.807Z,23.99
2022-08-18T00:09:09.367Z,23.90
2022-08-18T00:13:14.328Z,23.74
2022-08-18T00:17:25.504Z,23.62
2022-08-18T00:21:30.493Z,23.53
2022-08-18T00:25:36.563Z,23.41
2022-08-18T00:29:38.570Z,23.35
2022-08-18T00:33:41.331Z,23.32
2022-08-18T00:37:49.571Z,23.37
2022-08-18T00:41:59.346Z,23.37
2022-08-18T00:46:02.281Z,23.32
2022-08-18T00:50:06.778Z,23.32
2022-08-18T00:54:24.021Z,23.35
2022-08-18T00:58:35.682Z,23.31
2022-08-18T01:02:48.034Z,23.32
2022-08-18T01:06:58.306Z,23.29
2022-08-18T01:11:06.166Z,23.29
2022-08-18T01:15:29.051Z,23.25
2022-08-18T01:20:04.749Z,23.18
2022-08-18T01:24:21.763Z,23.12
2022-08-18T01:28:26.094Z,23.06
2022-08-18T01:32:31.450Z,23.09
2022-08-18T01:36:42.737Z,22.99
2022-08-18T01:41:21.690Z,22.99
2022-08-18T01:45:19.163Z,22.97
2022-08-18T01:49:24.867Z,22.97
2022-08-18T01:53:31.416Z,22.97
2022-08-18T01:57:38.717Z,22.97
2022-08-18T02:01:50.349Z,22.91
2022-08-18T02:06:02.929Z,22.88
2022-08-18T02:10:11.986Z,22.82
2022-08-18T02:14:25.097Z,22.78
2022-08-18T02:18:47.780Z,22.78
2022-08-18T02:22:53.783Z,22.74
2022-08-18T02:27:02.535Z,22.67
2022-08-18T02:31:11.358Z,22.67
2022-08-18T02:35:20.850Z,22.66
2022-08-18T02:39:25.732Z,22.59
2022-08-18T02:43:28.729Z,22.56
2022-08-18T02:47:33.812Z,22.57
2022-08-18T02:51:38.826Z,22.52
2022-08-18T02:55:45.777Z,22.52
2022-08-18T02:59:50.715Z,22.52
2022-08-18T03:03:56.161Z,22.51
2022-08-18T03:08:02.388Z,22.49
2022-08-18T03:12:05.278Z,22.46
2022-08-18T03:16:09.866Z,22.46
2022-08-18T03:20:12.449Z,22.48
2022-08-18T03:24:19.706Z,22.46
2022-08-18T03:28:24.641Z,22.44
2022-08-18T03:32:26.770Z,22.45
2022-08-18T03:36:34.987Z,22.42
2022-08-18T03:40:43.415Z,22.42
2022-08-18T03:44:45.542Z,22.39
2022-08-18T03:48:49.817Z,22.33
2022-08-18T03:53:08.590Z,22.35
2022-08-18T03:57:14.989Z,22.38
2022-08-18T04:01:26.318Z,22.35
2022-08-18T04:05:29.814Z,22.33
2022-08-18T04:09:33.451Z,22.26
2022-08-18T04:13:37.214Z,22.19
2022-08-18T04:17:56.044Z,22.12
2022-08-18T04:22:02.954Z,22.11
2022-08-18T04:26:06.553Z,22.08
2022-08-18T04:30:09.293Z,22.08
2022-08-18T04:34:12.247Z,22.09
2022-08-18T04:38:14.098Z,22.09
2022-08-18T04:42:15.912Z,22.08
2022-08-18T04:46:17.508Z,22.08
2022-08-18T04:50:19.511Z,22.05
2022-08-18T04:54:24.761Z,22.05
2022-08-18T04:58:26.309Z,22.04
2022-08-18T05:02:27.959Z,21.96
2022-08-18T05:06:30.821Z,21.96
2022-08-18T05:10:32.734Z,21.96
2022-08-18T05:14:35.995Z,21.93
2022-08-18T05:18:40.510Z,21.90
2022-08-18T05:22:45.509Z,21.91
2022-08-18T05:26:48.927Z,21.90
2022-08-18T05:30:50.501Z,21.86
2022-08-18T05:34:52.115Z,21.85
2022-08-18T05:39:13.032Z,21.83
2022-08-18T05:43:16.935Z,21.81
2022-08-18T05:47:24.170Z,21.77
2022-08-18T05:51:33.765Z,21.56
2022-08-18T05:56:06.733Z,21.51
2022-08-18T06:00:11.285Z,21.55
2022-08-18T06:04:47.957Z,21.68
2022-08-18T06:09:15.685Z,21.81
2022-08-18T06:13:20.046Z,21.98
2022-08-18T06:17:37.048Z,22.09
2022-08-18T06:21:50.201Z,22.14
2022-08-18T06:26:13.505Z,22.31
2022-08-18T06:30:19.425Z,22.48
2022-08-18T06:34:30.138Z,22.59
2022-08-18T06:38:52.761Z,22.74
2022-08-18T06:42:54.770Z,22.96
2022-08-18T06:47:06.401Z,23.14
2022-08-18T06:51:08.921Z,23.21
2022-08-18T06:55:18.071Z,23.23
2022-08-18T06:59:33.098Z,23.19
2022-08-18T07:03:34.576Z,23.14
2022-08-18T07:07:41.829Z,23.09
2022-08-18T07:11:59.921Z,23.07
2022-08-18T07:16:56.561Z,23.03
2022-08-18T07:20:57.295Z,22.93
2022-08-18T07:25:05.121Z,22.94
2022-08-18T07:29:16.160Z,23.01
2022-08-18T07:33:22.148Z,23.11
2022-08-18T07:37:29.521Z,23.14
2022-08-18T07:41:39.710Z,23.18
2022-08-18T07:45:45.182Z,23.26
2022-08-18T07:50:15.480Z,23.29
2022-08-18T07:54:25.425Z,23.34
2022-08-18T07:58:55.944Z,23.37
2022-08-18T08:03:15.628Z,23.31
2022-08-18T08:07:46.409Z,23.35
2022-08-18T08:12:01.598Z,23.39
2022-08-18T08:16:14.028Z,23.32
2022-08-18T08:20:15.701Z,23.25
2022-08-18T08:24:42.007Z,23.21
2022-08-18T08:28:56.049Z,23.16
2022-08-18T08:33:28.511Z,23.14
2022-08-18T08:37:44.786Z,23.06
2022-08-18T08:42:28.928Z,22.99
2022-08-18T08:46:24.870Z,22.99
2022-08-18T08:50:30.979Z,23.00
2022-08-18T08:55:00.898Z,22.97
2022-08-18T08:59:08.743Z,22.94
2022-08-18T09:03:30.634Z,22.86
2022-08-18T09:07:54.974Z,22.81
2022-08-18T09:12:11.902Z,22.79
2022-08-18T09:16:49.737Z,22.79
2022-08-18T09:20:57.282Z,22.79
2022-08-18T09:24:59.989Z,22.78
2022-08-18T09:29:16.479Z,22.81
2022-08-18T09:33:33.450Z,22.86
2022-08-18T09:37:45.143Z,22.94
2022-08-18T09:41:52.016Z,23.04
2022-08-18T09:45:59.582Z,23.23
2022-08-18T09:54:51.313Z,23.77
2022-08-18T09:59:00.814Z,24.11
2022-08-18T10:03:11.256Z,24.42
2022-08-18T10:07:32.920Z,24.60
2022-08-18T10:11:50.911Z,24.59
2022-08-18T10:20:42.611Z,24.53
2022-08-18T10:24:54.927Z,24.41
2022-08-18T10:28:58.299Z,24.16
2022-08-18T10:33:10.779Z,24.11
2022-08-18T10:37:39.686Z,24.15
2022-08-18T10:42:02.487Z,24.09
2022-08-18T10:46:24.957Z,24.12
2022-08-18T10:50:29.225Z,24.15
2022-08-18T10:55:18.236Z,24.36
2022-08-18T10:59:54.511Z,24.59
2022-08-18T11:04:22.509Z,24.77
2022-08-18T11:08:31.661Z,25.17
2022-08-18T11:13:09.650Z,25.36
2022-08-18T11:17:27.196Z,25.35
2022-08-18T11:21:43.616Z,25.17
2022-08-18T11:25:48.252Z,25.08
2022-08-18T11:29:51.521Z,24.89
2022-08-18T11:33:53.336Z,24.80
2022-08-18T11:37:56.153Z,24.89
2022-08-18T11:41:58.982Z,25.08
2022-08-18T11:46:11.626Z,25.04
2022-08-18T11:50:13.570Z,25.07
2022-08-18T11:54:21.677Z,25.31
2022-08-18T11:58:45.948Z,25.49
2022-08-18T12:03:04.859Z,25.54
2022-08-18T12:07:09.768Z,25.56
2022-08-18T12:11:26.608Z,25.59
2022-08-18T12:15:44.070Z,25.54
2022-08-18T12:19:49.794Z,25.66
2022-08-18T12:23:53.466Z,25.98
2022-08-18T12:27:55.215Z,26.13
2022-08-18T12:31:56.810Z,26.29
2022-08-18T12:35:59.178Z,26.64
2022-08-18T12:40:01.996Z,26.96
2022-08-18T12:44:04.014Z,27.20
2022-08-18T12:48:11.950Z,27.18
2022-08-18T12:52:14.279Z,26.91
2022-08-18T12:56:24.843Z,26.86
2022-08-18T13:00:27.776Z,26.86
2022-08-18T13:04:29.671Z,26.91
2022-08-18T13:08:33.722Z,27.31
2022-08-18T13:12:49.421Z,27.90
2022-08-18T13:16:54.984Z,28.01
2022-08-18T13:20:58.557Z,28.23
2022-08-18T13:25:05.483Z,28.25
2022-08-18T13:29:10.233Z,28.06
2022-08-18T13:33:53.701Z,27.84
2022-08-18T13:37:34.289Z,27.71
2022-08-18T13:41:35.887Z,27.50
2022-08-18T13:45:37.809Z,27.39
2022-08-18T13:49:41.334Z,27.28
2022-08-18T13:54:26.364Z,27.27
2022-08-18T13:58:22.199Z,27.18
2022-08-18T14:02:23.844Z,27.40
2022-08-18T14:10:35.875Z,27.78
2022-08-18T14:14:37.418Z,27.93
2022-08-18T14:18:39.144Z,28.03
2022-08-18T14:22:59.828Z,28.03
2022-08-18T14:27:02.016Z,28.05
2022-08-18T14:31:03.977Z,28.13
2022-08-18T14:35:13.665Z,28.08
2022-08-18T14:39:32.305Z,28.13
2022-08-18T14:44:10.961Z,28.15
2022-08-18T14:47:57.693Z,28.30
2022-08-18T14:52:01.209Z,28.33
2022-08-18T14:56:04.435Z,28.30
2022-08-18T15:00:12.734Z,28.30
2022-08-18T15:04:18.539Z,28.25
2022-08-18T15:12:28.880Z,28.35
2022-08-18T15:16:34.967Z,28.20
2022-08-18T15:21:00.265Z,28.18
2022-08-18T15:25:21.337Z,28.25
2022-08-18T15:29:28.949Z,28.20
2022-08-18T15:33:31.874Z,28.25
2022-08-18T15:37:38.219Z,28.25
2022-08-18T15:41:48.783Z,28.09
2022-08-18T15:45:57.754Z,27.98
2022-08-18T15:50:00.214Z,28.01
2022-08-18T15:54:09.867Z,27.98
2022-08-18T15:58:13.676Z,27.96
2022-08-18T16:02:19.882Z,27.90
2022-08-18T16:06:27.545Z,27.96
2022-08-18T16:10:36.999Z,27.98
2022-08-18T16:14:41.367Z,28.03
2022-08-18T16:18:46.056Z,27.95
2022-08-18T16:22:48.018Z,27.78
2022-08-18T16:26:51.835Z,27.71
2022-08-18T16:30:54.786Z,27.65
2022-08-18T16:34:56.346Z,27.53
2022-08-18T16:38:58.702Z,27.49
2022-08-18T16:43:00.801Z,27.45
2022-08-18T16:47:07.391Z,27.40
2022-08-18T16:51:13.020Z,27.33
2022-08-18T16:55:14.733Z,27.23
2022-08-18T16:59:35.061Z,27.12
2022-08-18T17:03:55.230Z,26.98
2022-08-18T17:07:56.791Z,26.91
2022-08-18T17:11:59.050Z,26.87
2022-08-18T17:16:00.689Z,26.81
2022-08-18T17:20:02.306Z,26.76
2022-08-18T17:24:12.526Z,26.73
2022-08-18T17:28:16.652Z,26.69
2022-08-18T17:32:42.865Z,26.60
2022-08-18T17:36:52.800Z,26.51
2022-08-18T17:40:57.180Z,26.46
2022-08-18T17:45:05.637Z,26.38
2022-08-18T17:49:14.438Z,26.35
2022-08-18T17:53:16.894Z,26.29
2022-08-18T17:57:29.751Z,26.24
2022-08-18T18:01:33.580Z,26.13
2022-08-18T18:05:44.966Z,26.08
2022-08-18T18:09:54.377Z,26.01
2022-08-18T18:13:56.060Z,25.89
2022-08-18T18:17:57.676Z,25.72
2022-08-18T18:22:24.092Z,25.66
2022-08-18T18:26:31.327Z,25.57
2022-08-18T18:30:33.363Z,25.53
2022-08-18T18:34:41.163Z,25.45
2022-08-18T18:38:48.858Z,25.36
2022-08-18T18:42:50.640Z,25.30
2022-08-18T18:47:02.121Z,25.24
2022-08-18T18:51:11.087Z,25.23
2022-08-18T18:55:23.164Z,25.19
2022-08-18T18:59:26.681Z,25.11
2022-08-18T19:03:56.266Z,25.05
2022-08-18T19:08:06.771Z,25.01
2022-08-18T19:12:26.552Z,24.93
2022-08-18T19:16:35.965Z,24.86
2022-08-18T19:20:42.326Z,24.80
2022-08-18T19:25:16.788Z,24.79
2022-08-18T19:29:24.500Z,24.75
2022-08-18T19:33:46.776Z,24.74
2022-08-18T19:38:04.449Z,24.67
2022-08-18T19:42:49.070Z,24.56
2022-08-18T19:46:57.248Z,24.49
2022-08-18T19:51:24.323Z,24.42
2022-08-18T19:55:44.789Z,24.34
2022-08-18T20:00:11.889Z,24.26
2022-08-18T20:04:28.336Z,24.23
2022-08-18T20:08:49.931Z,24.21
2022-08-18T20:13:05.472Z,24.16
2022-08-18T20:17:12.781Z,24.11
2022-08-18T20:21:14.446Z,24.06
2022-08-18T20:25:16.434Z,24.00
2022-08-18T20:29:39.575Z,23.97
2022-08-18T20:33:46.837Z,23.92
2022-08-18T20:37:48.468Z,23.87
2022-08-18T20:41:50.448Z,23.84
2022-08-18T20:46:06.745Z,23.79
2022-08-18T20:50:38.957Z,23.77
2022-08-18T20:55:11.827Z,23.75
2022-08-18T20:59:20.304Z,23.74
2022-08-18T21:03:22.552Z,23.68
2022-08-18T21:07:36.836Z,23.59
2022-08-18T21:11:43.627Z,23.52
2022-08-18T21:15:45.250Z,23.45
2022-08-18T21:19:47.141Z,23.41
2022-08-18T21:23:54.910Z,23.34
2022-08-18T21:27:57.210Z,23.25
2022-08-18T21:32:16.401Z,23.22
2022-08-18T21:36:20.232Z,23.16
2022-08-18T21:40:31.002Z,23.12
2022-08-18T21:44:42.320Z,23.12
2022-08-18T21:48:49.166Z,23.16
2022-08-18T21:53:00.009Z,23.18
2022-08-18T21:57:18.632Z,23.18
2022-08-18T22:01:30.222Z,23.21
2022-08-18T22:05:55.105Z,23.21
2022-08-18T22:10:23.361Z,23.18
2022-08-18T22:14:54.842Z,23.12
2022-08-18T22:19:15.969Z,23.07
2022-08-18T22:23:43.028Z,23.01
2022-08-18T22:27:49.696Z,23.00
2022-08-18T22:31:53.501Z,22.94
2022-08-18T22:35:56.249Z,22.84
2022-08-18T22:40:10.072Z,22.79
2022-08-18T22:44:11.822Z,22.78
2022-08-18T22:48:15.782Z,22.75
2022-08-18T22:52:30.120Z,22.74
2022-08-18T22:56:34.755Z,22.75
2022-08-18T23:00:37.312Z,22.69
2022-08-18T23:04:40.956Z,22.64
2022-08-18T23:08:54.632Z,22.63
2022-08-18T23:13:01.000Z,22.64
2022-08-18T23:17:06.796Z,22.66
2022-08-18T23:21:08.377Z,22.70
2022-08-18T23:25:10.050Z,22.70
2022-08-18T23:29:14.387Z,22.70
2022-08-18T23:33:19.264Z,22.72
2022-08-18T23:37:21.758Z,22.75
2022-08-18T23:41:23.893Z,22.75
2022-08-18T23:45:25.721Z,22.74
2022-08-18T23:49:29.425Z,22.74
2022-08-18T23:53:31.364Z,22.72
2022-08-18T23:57:33.963Z,22.72
